sensor_id;sensor_type;location;lat;lon;timestamp;P1;durP1;ratioP1;P2;durP2;ratioP2
65182;SDS011;51771;51.068;-1.780;2024-02-28T00:01:23;6.90;;;2.90;;
65182;SDS011;51771;51.068;-1.780;2024-02-28T00:03:48;5.53;;;2.80;;
65182;SDS011;51771;51.068;-1.780;2024-02-28T00:06:15;10.80;;;2.42;;
65182;SDS011;51771;51.068;-1.780;2024-02-28T00:08:41;11.05;;;2.80;;
65182;SDS011;51771;51.068;-1.780;2024-02-28T00:11:07;8.18;;;2.55;;
65182;SDS011;51771;51.068;-1.780;2024-02-28T00:13:32;6.20;;;2.50;;
65182;SDS011;51771;51.068;-1.780;2024-02-28T00:15:57;12.25;;;3.58;;
65182;SDS011;51771;51.068;-1.780;2024-02-28T00:18:23;7.90;;;2.95;;
65182;SDS011;51771;51.068;-1.780;2024-02-28T00:20:48;10.02;;;2.90;;
65182;SDS011;51771;51.068;-1.780;2024-02-28T00:23:14;8.93;;;3.33;;
65182;SDS011;51771;51.068;-1.780;2024-02-28T00:25:39;6.07;;;2.70;;
65182;SDS011;51771;51.068;-1.780;2024-02-28T00:28:04;8.65;;;2.85;;
65182;SDS011;51771;51.068;-1.780;2024-02-28T00:30:30;6.53;;;2.80;;
65182;SDS011;51771;51.068;-1.780;2024-02-28T00:32:57;7.85;;;2.55;;
65182;SDS011;51771;51.068;-1.780;2024-02-28T00:35:22;8.00;;;2.60;;
65182;SDS011;51771;51.068;-1.780;2024-02-28T00:37:47;6.88;;;2.42;;
65182;SDS011;51771;51.068;-1.780;2024-02-28T00:40:12;6.88;;;2.30;;
65182;SDS011;51771;51.068;-1.780;2024-02-28T00:42:38;6.72;;;2.30;;
65182;SDS011;51771;51.068;-1.780;2024-02-28T00:45:03;7.03;;;2.30;;
65182;SDS011;51771;51.068;-1.780;2024-02-28T00:47:29;8.15;;;2.50;;
65182;SDS011;51771;51.068;-1.780;2024-02-28T00:49:55;5.05;;;2.10;;
65182;SDS011;51771;51.068;-1.780;2024-02-28T00:52:20;5.93;;;2.55;;
65182;SDS011;51771;51.068;-1.780;2024-02-28T00:54:45;7.00;;;2.10;;
65182;SDS011;51771;51.068;-1.780;2024-02-28T00:57:10;9.60;;;2.40;;
65182;SDS011;51771;51.068;-1.780;2024-02-28T00:59:36;10.73;;;2.38;;
65182;SDS011;51771;51.068;-1.780;2024-02-28T01:02:01;4.07;;;1.90;;
65182;SDS011;51771;51.068;-1.780;2024-02-28T01:04:28;7.60;;;2.78;;
65182;SDS011;51771;51.068;-1.780;2024-02-28T01:06:53;6.43;;;2.05;;
65182;SDS011;51771;51.068;-1.780;2024-02-28T01:09:19;7.25;;;2.95;;
65182;SDS011;51771;51.068;-1.780;2024-02-28T01:11:45;6.53;;;2.80;;
65182;SDS011;51771;51.068;-1.780;2024-02-28T01:14:10;7.60;;;1.90;;
65182;SDS011;51771;51.068;-1.780;2024-02-28T01:16:36;6.65;;;2.40;;
65182;SDS011;51771;51.068;-1.780;2024-02-28T01:19:01;4.95;;;1.65;;
65182;SDS011;51771;51.068;-1.780;2024-02-28T01:21:28;7.20;;;1.90;;
65182;SDS011;51771;51.068;-1.780;2024-02-28T01:23:53;8.63;;;1.80;;
65182;SDS011;51771;51.068;-1.780;2024-02-28T01:26:18;6.60;;;1.98;;
65182;SDS011;51771;51.068;-1.780;2024-02-28T01:28:46;5.25;;;1.83;;
65182;SDS011;51771;51.068;-1.780;2024-02-28T01:31:11;8.90;;;2.05;;
65182;SDS011;51771;51.068;-1.780;2024-02-28T01:33:37;11.68;;;2.10;;
65182;SDS011;51771;51.068;-1.780;2024-02-28T01:36:02;6.50;;;1.83;;
65182;SDS011;51771;51.068;-1.780;2024-02-28T01:38:29;8.63;;;2.00;;
65182;SDS011;51771;51.068;-1.780;2024-02-28T01:40:55;14.48;;;2.42;;
65182;SDS011;51771;51.068;-1.780;2024-02-28T01:43:20;6.80;;;1.90;;
65182;SDS011;51771;51.068;-1.780;2024-02-28T01:45:46;10.40;;;2.55;;
65182;SDS011;51771;51.068;-1.780;2024-02-28T01:48:11;8.45;;;1.73;;
65182;SDS011;51771;51.068;-1.780;2024-02-28T01:50:37;8.82;;;2.50;;
65182;SDS011;51771;51.068;-1.780;2024-02-28T01:53:03;11.32;;;1.70;;
65182;SDS011;51771;51.068;-1.780;2024-02-28T01:55:31;4.60;;;1.90;;
65182;SDS011;51771;51.068;-1.780;2024-02-28T01:57:57;7.32;;;2.15;;
65182;SDS011;51771;51.068;-1.780;2024-02-28T02:00:23;6.53;;;2.05;;
65182;SDS011;51771;51.068;-1.780;2024-02-28T02:02:50;12.00;;;2.00;;
65182;SDS011;51771;51.068;-1.780;2024-02-28T02:05:16;5.90;;;1.95;;
65182;SDS011;51771;51.068;-1.780;2024-02-28T02:07:43;9.98;;;1.98;;
65182;SDS011;51771;51.068;-1.780;2024-02-28T02:10:09;14.15;;;2.47;;
65182;SDS011;51771;51.068;-1.780;2024-02-28T02:12:37;7.60;;;2.03;;
65182;SDS011;51771;51.068;-1.780;2024-02-28T02:15:02;11.20;;;2.92;;
65182;SDS011;51771;51.068;-1.780;2024-02-28T02:17:28;5.35;;;2.00;;
65182;SDS011;51771;51.068;-1.780;2024-02-28T02:19:53;5.50;;;1.83;;
65182;SDS011;51771;51.068;-1.780;2024-02-28T02:22:19;8.35;;;1.63;;
65182;SDS011;51771;51.068;-1.780;2024-02-28T02:24:46;8.00;;;1.65;;
65182;SDS011;51771;51.068;-1.780;2024-02-28T02:27:11;6.43;;;1.52;;
65182;SDS011;51771;51.068;-1.780;2024-02-28T02:29:37;4.18;;;1.40;;
65182;SDS011;51771;51.068;-1.780;2024-02-28T02:32:02;7.82;;;1.75;;
65182;SDS011;51771;51.068;-1.780;2024-02-28T02:34:28;5.47;;;2.67;;
65182;SDS011;51771;51.068;-1.780;2024-02-28T02:36:53;7.13;;;1.42;;
65182;SDS011;51771;51.068;-1.780;2024-02-28T02:39:18;5.65;;;1.40;;
65182;SDS011;51771;51.068;-1.780;2024-02-28T02:41:44;3.75;;;1.48;;
65182;SDS011;51771;51.068;-1.780;2024-02-28T02:44:09;9.85;;;1.50;;
65182;SDS011;51771;51.068;-1.780;2024-02-28T02:46:34;6.68;;;2.10;;
65182;SDS011;51771;51.068;-1.780;2024-02-28T02:49:00;6.82;;;1.73;;
65182;SDS011;51771;51.068;-1.780;2024-02-28T02:51:25;5.10;;;1.60;;
65182;SDS011;51771;51.068;-1.780;2024-02-28T02:53:50;4.90;;;1.30;;
65182;SDS011;51771;51.068;-1.780;2024-02-28T02:56:16;5.40;;;1.40;;
65182;SDS011;51771;51.068;-1.780;2024-02-28T02:58:41;4.18;;;1.52;;
65182;SDS011;51771;51.068;-1.780;2024-02-28T03:01:06;5.97;;;1.58;;
65182;SDS011;51771;51.068;-1.780;2024-02-28T03:03:33;4.25;;;1.50;;
65182;SDS011;51771;51.068;-1.780;2024-02-28T03:05:59;5.70;;;1.35;;
65182;SDS011;51771;51.068;-1.780;2024-02-28T03:08:24;6.68;;;1.60;;
65182;SDS011;51771;51.068;-1.780;2024-02-28T03:10:50;3.50;;;1.50;;
65182;SDS011;51771;51.068;-1.780;2024-02-28T03:13:15;4.28;;;1.55;;
65182;SDS011;51771;51.068;-1.780;2024-02-28T03:15:40;6.20;;;1.50;;
65182;SDS011;51771;51.068;-1.780;2024-02-28T03:18:06;3.70;;;1.30;;
65182;SDS011;51771;51.068;-1.780;2024-02-28T03:20:31;4.95;;;1.48;;
65182;SDS011;51771;51.068;-1.780;2024-02-28T03:22:57;5.40;;;1.63;;
65182;SDS011;51771;51.068;-1.780;2024-02-28T03:25:22;4.28;;;1.10;;
65182;SDS011;51771;51.068;-1.780;2024-02-28T03:27:47;5.32;;;2.20;;
65182;SDS011;51771;51.068;-1.780;2024-02-28T03:30:13;3.85;;;1.27;;
65182;SDS011;51771;51.068;-1.780;2024-02-28T03:32:38;2.78;;;1.05;;
65182;SDS011;51771;51.068;-1.780;2024-02-28T03:35:04;3.83;;;1.33;;
65182;SDS011;51771;51.068;-1.780;2024-02-28T03:37:30;2.30;;;0.90;;
65182;SDS011;51771;51.068;-1.780;2024-02-28T03:39:56;5.63;;;1.58;;
65182;SDS011;51771;51.068;-1.780;2024-02-28T03:42:21;6.60;;;1.75;;
65182;SDS011;51771;51.068;-1.780;2024-02-28T03:44:47;8.00;;;1.48;;
65182;SDS011;51771;51.068;-1.780;2024-02-28T03:47:12;4.82;;;1.55;;
65182;SDS011;51771;51.068;-1.780;2024-02-28T03:49:37;3.15;;;1.15;;
65182;SDS011;51771;51.068;-1.780;2024-02-28T03:52:03;3.83;;;1.40;;
65182;SDS011;51771;51.068;-1.780;2024-02-28T03:54:31;4.53;;;1.35;;
65182;SDS011;51771;51.068;-1.780;2024-02-28T03:56:56;7.75;;;1.35;;
65182;SDS011;51771;51.068;-1.780;2024-02-28T03:59:21;4.68;;;1.40;;
65182;SDS011;51771;51.068;-1.780;2024-02-28T04:01:47;4.38;;;1.42;;
65182;SDS011;51771;51.068;-1.780;2024-02-28T04:04:12;5.28;;;1.60;;
65182;SDS011;51771;51.068;-1.780;2024-02-28T04:06:37;4.40;;;1.38;;
65182;SDS011;51771;51.068;-1.780;2024-02-28T04:09:03;3.92;;;1.15;;
65182;SDS011;51771;51.068;-1.780;2024-02-28T04:11:28;3.80;;;1.10;;
65182;SDS011;51771;51.068;-1.780;2024-02-28T04:13:54;4.13;;;1.17;;
65182;SDS011;51771;51.068;-1.780;2024-02-28T04:16:19;3.03;;;1.00;;
65182;SDS011;51771;51.068;-1.780;2024-02-28T04:18:45;4.20;;;1.35;;
65182;SDS011;51771;51.068;-1.780;2024-02-28T04:21:10;3.60;;;1.08;;
65182;SDS011;51771;51.068;-1.780;2024-02-28T04:23:35;8.00;;;1.48;;
65182;SDS011;51771;51.068;-1.780;2024-02-28T04:26:01;4.38;;;1.30;;
65182;SDS011;51771;51.068;-1.780;2024-02-28T04:28:26;3.78;;;1.17;;
65182;SDS011;51771;51.068;-1.780;2024-02-28T04:30:52;3.50;;;1.38;;
65182;SDS011;51771;51.068;-1.780;2024-02-28T04:33:17;4.65;;;1.60;;
65182;SDS011;51771;51.068;-1.780;2024-02-28T04:35:42;3.42;;;1.35;;
65182;SDS011;51771;51.068;-1.780;2024-02-28T04:38:08;4.03;;;1.40;;
65182;SDS011;51771;51.068;-1.780;2024-02-28T04:40:33;5.05;;;1.58;;
65182;SDS011;51771;51.068;-1.780;2024-02-28T04:42:59;5.85;;;1.30;;
65182;SDS011;51771;51.068;-1.780;2024-02-28T04:45:24;8.52;;;1.75;;
65182;SDS011;51771;51.068;-1.780;2024-02-28T04:47:49;7.78;;;2.03;;
65182;SDS011;51771;51.068;-1.780;2024-02-28T04:50:16;3.47;;;1.30;;
65182;SDS011;51771;51.068;-1.780;2024-02-28T04:52:42;5.20;;;1.30;;
65182;SDS011;51771;51.068;-1.780;2024-02-28T04:55:07;4.82;;;1.45;;
65182;SDS011;51771;51.068;-1.780;2024-02-28T04:57:33;4.13;;;1.10;;
65182;SDS011;51771;51.068;-1.780;2024-02-28T04:59:58;4.88;;;1.30;;
65182;SDS011;51771;51.068;-1.780;2024-02-28T05:02:23;4.78;;;1.75;;
65182;SDS011;51771;51.068;-1.780;2024-02-28T05:04:50;3.70;;;1.40;;
65182;SDS011;51771;51.068;-1.780;2024-02-28T05:07:16;4.25;;;1.35;;
65182;SDS011;51771;51.068;-1.780;2024-02-28T05:09:41;5.15;;;1.50;;
65182;SDS011;51771;51.068;-1.780;2024-02-28T05:12:07;6.03;;;1.55;;
65182;SDS011;51771;51.068;-1.780;2024-02-28T05:14:33;4.32;;;1.50;;
65182;SDS011;51771;51.068;-1.780;2024-02-28T05:16:58;5.82;;;1.42;;
65182;SDS011;51771;51.068;-1.780;2024-02-28T05:19:23;6.50;;;1.48;;
65182;SDS011;51771;51.068;-1.780;2024-02-28T05:21:49;5.32;;;1.60;;
65182;SDS011;51771;51.068;-1.780;2024-02-28T05:24:14;3.65;;;1.33;;
65182;SDS011;51771;51.068;-1.780;2024-02-28T05:26:39;8.00;;;1.48;;
65182;SDS011;51771;51.068;-1.780;2024-02-28T05:29:05;4.32;;;1.48;;
65182;SDS011;51771;51.068;-1.780;2024-02-28T05:31:31;6.38;;;1.67;;
65182;SDS011;51771;51.068;-1.780;2024-02-28T05:33:57;6.35;;;1.70;;
65182;SDS011;51771;51.068;-1.780;2024-02-28T05:36:24;7.30;;;1.77;;
65182;SDS011;51771;51.068;-1.780;2024-02-28T05:38:51;4.05;;;1.60;;
65182;SDS011;51771;51.068;-1.780;2024-02-28T05:41:18;6.65;;;1.77;;
65182;SDS011;51771;51.068;-1.780;2024-02-28T05:43:43;4.38;;;1.50;;
65182;SDS011;51771;51.068;-1.780;2024-02-28T05:46:09;6.30;;;1.83;;
65182;SDS011;51771;51.068;-1.780;2024-02-28T05:48:34;5.25;;;1.58;;
65182;SDS011;51771;51.068;-1.780;2024-02-28T05:51:00;6.72;;;1.80;;
65182;SDS011;51771;51.068;-1.780;2024-02-28T05:53:26;5.05;;;1.77;;
65182;SDS011;51771;51.068;-1.780;2024-02-28T05:55:52;3.78;;;1.48;;
65182;SDS011;51771;51.068;-1.780;2024-02-28T05:58:21;7.65;;;1.90;;
65182;SDS011;51771;51.068;-1.780;2024-02-28T06:00:47;4.90;;;1.55;;
65182;SDS011;51771;51.068;-1.780;2024-02-28T06:03:12;6.03;;;1.75;;
65182;SDS011;51771;51.068;-1.780;2024-02-28T06:05:38;8.05;;;1.63;;
65182;SDS011;51771;51.068;-1.780;2024-02-28T06:08:03;5.40;;;1.70;;
65182;SDS011;51771;51.068;-1.780;2024-02-28T06:10:29;7.10;;;2.00;;
65182;SDS011;51771;51.068;-1.780;2024-02-28T06:12:54;5.40;;;1.67;;
65182;SDS011;51771;51.068;-1.780;2024-02-28T06:15:19;7.82;;;2.28;;
65182;SDS011;51771;51.068;-1.780;2024-02-28T06:17:45;7.07;;;1.70;;
65182;SDS011;51771;51.068;-1.780;2024-02-28T06:20:10;7.25;;;2.33;;
65182;SDS011;51771;51.068;-1.780;2024-02-28T06:22:36;6.20;;;1.60;;
65182;SDS011;51771;51.068;-1.780;2024-02-28T06:25:01;7.97;;;1.50;;
65182;SDS011;51771;51.068;-1.780;2024-02-28T06:27:26;6.07;;;1.98;;
65182;SDS011;51771;51.068;-1.780;2024-02-28T06:29:52;4.78;;;1.70;;
65182;SDS011;51771;51.068;-1.780;2024-02-28T06:32:17;6.82;;;1.77;;
65182;SDS011;51771;51.068;-1.780;2024-02-28T06:34:43;5.82;;;1.77;;
65182;SDS011;51771;51.068;-1.780;2024-02-28T06:37:08;4.50;;;1.50;;
65182;SDS011;51771;51.068;-1.780;2024-02-28T06:39:33;5.53;;;2.00;;
65182;SDS011;51771;51.068;-1.780;2024-02-28T06:41:59;3.67;;;1.60;;
65182;SDS011;51771;51.068;-1.780;2024-02-28T06:44:24;5.35;;;2.15;;
65182;SDS011;51771;51.068;-1.780;2024-02-28T06:46:49;5.40;;;2.03;;
65182;SDS011;51771;51.068;-1.780;2024-02-28T06:49:15;3.90;;;1.83;;
65182;SDS011;51771;51.068;-1.780;2024-02-28T06:51:40;5.72;;;2.10;;
65182;SDS011;51771;51.068;-1.780;2024-02-28T06:54:05;7.55;;;1.80;;
65182;SDS011;51771;51.068;-1.780;2024-02-28T06:56:31;5.95;;;1.95;;
65182;SDS011;51771;51.068;-1.780;2024-02-28T06:58:56;4.90;;;1.77;;
65182;SDS011;51771;51.068;-1.780;2024-02-28T07:01:21;5.32;;;1.60;;
65182;SDS011;51771;51.068;-1.780;2024-02-28T07:03:47;6.35;;;1.70;;
65182;SDS011;51771;51.068;-1.780;2024-02-28T07:06:13;7.90;;;2.15;;
65182;SDS011;51771;51.068;-1.780;2024-02-28T07:08:38;4.85;;;1.80;;
65182;SDS011;51771;51.068;-1.780;2024-02-28T07:11:03;8.82;;;2.17;;
65182;SDS011;51771;51.068;-1.780;2024-02-28T07:13:29;4.95;;;1.92;;
65182;SDS011;51771;51.068;-1.780;2024-02-28T07:15:55;5.82;;;2.03;;
65182;SDS011;51771;51.068;-1.780;2024-02-28T07:18:22;3.92;;;1.70;;
65182;SDS011;51771;51.068;-1.780;2024-02-28T07:20:50;6.43;;;2.03;;
65182;SDS011;51771;51.068;-1.780;2024-02-28T07:23:16;5.68;;;2.45;;
65182;SDS011;51771;51.068;-1.780;2024-02-28T07:25:42;4.63;;;1.80;;
65182;SDS011;51771;51.068;-1.780;2024-02-28T07:28:08;7.00;;;2.13;;
65182;SDS011;51771;51.068;-1.780;2024-02-28T07:30:33;5.45;;;1.95;;
65182;SDS011;51771;51.068;-1.780;2024-02-28T07:32:58;6.30;;;2.25;;
65182;SDS011;51771;51.068;-1.780;2024-02-28T07:35:24;4.50;;;1.75;;
65182;SDS011;51771;51.068;-1.780;2024-02-28T07:37:49;7.78;;;2.55;;
65182;SDS011;51771;51.068;-1.780;2024-02-28T07:40:15;7.75;;;2.28;;
65182;SDS011;51771;51.068;-1.780;2024-02-28T07:42:40;6.28;;;1.85;;
65182;SDS011;51771;51.068;-1.780;2024-02-28T07:45:05;7.03;;;2.05;;
65182;SDS011;51771;51.068;-1.780;2024-02-28T07:47:33;5.15;;;2.05;;
65182;SDS011;51771;51.068;-1.780;2024-02-28T07:49:58;6.20;;;2.00;;
65182;SDS011;51771;51.068;-1.780;2024-02-28T07:52:24;6.75;;;2.42;;
65182;SDS011;51771;51.068;-1.780;2024-02-28T07:54:49;6.88;;;2.13;;
65182;SDS011;51771;51.068;-1.780;2024-02-28T07:57:17;5.53;;;1.98;;
65182;SDS011;51771;51.068;-1.780;2024-02-28T07:59:43;4.70;;;1.80;;
65182;SDS011;51771;51.068;-1.780;2024-02-28T08:02:09;5.28;;;1.83;;
65182;SDS011;51771;51.068;-1.780;2024-02-28T08:04:38;6.28;;;2.35;;
65182;SDS011;51771;51.068;-1.780;2024-02-28T08:07:04;6.88;;;1.95;;
65182;SDS011;51771;51.068;-1.780;2024-02-28T08:09:30;4.95;;;1.83;;
65182;SDS011;51771;51.068;-1.780;2024-02-28T08:11:55;9.93;;;3.63;;
65182;SDS011;51771;51.068;-1.780;2024-02-28T08:14:22;5.57;;;2.15;;
65182;SDS011;51771;51.068;-1.780;2024-02-28T08:16:48;7.88;;;2.25;;
65182;SDS011;51771;51.068;-1.780;2024-02-28T08:19:13;7.03;;;2.47;;
65182;SDS011;51771;51.068;-1.780;2024-02-28T08:21:39;10.02;;;2.63;;
65182;SDS011;51771;51.068;-1.780;2024-02-28T08:24:09;6.68;;;2.35;;
65182;SDS011;51771;51.068;-1.780;2024-02-28T08:26:36;8.20;;;2.42;;
65182;SDS011;51771;51.068;-1.780;2024-02-28T08:29:01;9.07;;;3.00;;
65182;SDS011;51771;51.068;-1.780;2024-02-28T08:31:28;7.57;;;2.60;;
65182;SDS011;51771;51.068;-1.780;2024-02-28T08:33:54;13.00;;;2.40;;
65182;SDS011;51771;51.068;-1.780;2024-02-28T08:36:20;8.25;;;2.47;;
65182;SDS011;51771;51.068;-1.780;2024-02-28T08:38:46;6.30;;;1.90;;
65182;SDS011;51771;51.068;-1.780;2024-02-28T08:41:15;8.60;;;2.35;;
65182;SDS011;51771;51.068;-1.780;2024-02-28T08:43:42;6.80;;;2.38;;
65182;SDS011;51771;51.068;-1.780;2024-02-28T08:46:07;6.93;;;2.10;;
65182;SDS011;51771;51.068;-1.780;2024-02-28T08:48:33;12.23;;;2.65;;
65182;SDS011;51771;51.068;-1.780;2024-02-28T08:50:59;7.82;;;2.47;;
65182;SDS011;51771;51.068;-1.780;2024-02-28T08:53:26;6.57;;;2.13;;
65182;SDS011;51771;51.068;-1.780;2024-02-28T08:55:51;7.75;;;2.28;;
65182;SDS011;51771;51.068;-1.780;2024-02-28T08:58:17;8.82;;;2.42;;
65182;SDS011;51771;51.068;-1.780;2024-02-28T09:00:42;9.98;;;2.47;;
65182;SDS011;51771;51.068;-1.780;2024-02-28T09:03:08;12.52;;;2.78;;
65182;SDS011;51771;51.068;-1.780;2024-02-28T09:05:33;9.43;;;2.63;;
65182;SDS011;51771;51.068;-1.780;2024-02-28T09:07:59;8.23;;;2.58;;
65182;SDS011;51771;51.068;-1.780;2024-02-28T09:10:24;6.55;;;2.45;;
65182;SDS011;51771;51.068;-1.780;2024-02-28T09:12:50;8.43;;;2.45;;
65182;SDS011;51771;51.068;-1.780;2024-02-28T09:15:15;9.30;;;1.83;;
65182;SDS011;51771;51.068;-1.780;2024-02-28T09:17:41;7.38;;;2.20;;
65182;SDS011;51771;51.068;-1.780;2024-02-28T09:20:06;11.23;;;2.40;;
65182;SDS011;51771;51.068;-1.780;2024-02-28T09:22:33;7.15;;;2.15;;
65182;SDS011;51771;51.068;-1.780;2024-02-28T09:24:59;12.20;;;4.38;;
65182;SDS011;51771;51.068;-1.780;2024-02-28T09:27:26;14.57;;;7.22;;
65182;SDS011;51771;51.068;-1.780;2024-02-28T09:29:51;11.68;;;4.97;;
65182;SDS011;51771;51.068;-1.780;2024-02-28T09:32:17;8.82;;;3.30;;
65182;SDS011;51771;51.068;-1.780;2024-02-28T09:34:43;6.88;;;2.88;;
65182;SDS011;51771;51.068;-1.780;2024-02-28T09:37:09;8.30;;;3.20;;
65182;SDS011;51771;51.068;-1.780;2024-02-28T09:39:34;9.63;;;3.00;;
65182;SDS011;51771;51.068;-1.780;2024-02-28T09:41:59;9.40;;;3.58;;
65182;SDS011;51771;51.068;-1.780;2024-02-28T09:44:25;13.40;;;2.80;;
65182;SDS011;51771;51.068;-1.780;2024-02-28T09:46:51;7.63;;;2.53;;
65182;SDS011;51771;51.068;-1.780;2024-02-28T09:49:17;14.20;;;3.53;;
65182;SDS011;51771;51.068;-1.780;2024-02-28T09:51:43;10.57;;;2.83;;
65182;SDS011;51771;51.068;-1.780;2024-02-28T09:54:09;13.05;;;2.88;;
65182;SDS011;51771;51.068;-1.780;2024-02-28T09:56:34;8.43;;;3.05;;
65182;SDS011;51771;51.068;-1.780;2024-02-28T09:59:00;7.85;;;2.60;;
65182;SDS011;51771;51.068;-1.780;2024-02-28T10:01:29;11.30;;;3.10;;
65182;SDS011;51771;51.068;-1.780;2024-02-28T10:03:54;10.35;;;2.85;;
65182;SDS011;51771;51.068;-1.780;2024-02-28T10:06:21;7.95;;;3.65;;
65182;SDS011;51771;51.068;-1.780;2024-02-28T10:08:47;8.48;;;2.92;;
65182;SDS011;51771;51.068;-1.780;2024-02-28T10:11:19;9.52;;;2.50;;
65182;SDS011;51771;51.068;-1.780;2024-02-28T10:13:46;11.13;;;3.28;;
65182;SDS011;51771;51.068;-1.780;2024-02-28T10:16:12;10.10;;;2.70;;
65182;SDS011;51771;51.068;-1.780;2024-02-28T10:18:40;9.55;;;2.78;;
65182;SDS011;51771;51.068;-1.780;2024-02-28T10:21:07;7.95;;;2.10;;
65182;SDS011;51771;51.068;-1.780;2024-02-28T10:23:32;7.22;;;2.10;;
65182;SDS011;51771;51.068;-1.780;2024-02-28T10:26:00;6.60;;;2.63;;
65182;SDS011;51771;51.068;-1.780;2024-02-28T10:28:25;9.77;;;3.30;;
65182;SDS011;51771;51.068;-1.780;2024-02-28T10:30:51;11.18;;;2.65;;
65182;SDS011;51771;51.068;-1.780;2024-02-28T10:33:17;7.05;;;2.65;;
65182;SDS011;51771;51.068;-1.780;2024-02-28T10:35:42;9.95;;;2.40;;
65182;SDS011;51771;51.068;-1.780;2024-02-28T10:38:11;12.52;;;2.70;;
65182;SDS011;51771;51.068;-1.780;2024-02-28T10:40:39;10.35;;;2.80;;
65182;SDS011;51771;51.068;-1.780;2024-02-28T10:43:05;9.15;;;3.05;;
65182;SDS011;51771;51.068;-1.780;2024-02-28T10:45:33;11.98;;;3.08;;
65182;SDS011;51771;51.068;-1.780;2024-02-28T10:48:02;8.27;;;2.65;;
65182;SDS011;51771;51.068;-1.780;2024-02-28T10:50:28;10.27;;;2.30;;
65182;SDS011;51771;51.068;-1.780;2024-02-28T10:52:54;6.20;;;2.10;;
65182;SDS011;51771;51.068;-1.780;2024-02-28T10:55:25;6.85;;;2.22;;
65182;SDS011;51771;51.068;-1.780;2024-02-28T10:57:59;9.25;;;2.50;;
65182;SDS011;51771;51.068;-1.780;2024-02-28T11:00:28;7.53;;;2.10;;
65182;SDS011;51771;51.068;-1.780;2024-02-28T11:02:55;13.40;;;2.40;;
65182;SDS011;51771;51.068;-1.780;2024-02-28T11:05:22;4.53;;;1.50;;
65182;SDS011;51771;51.068;-1.780;2024-02-28T11:07:50;5.38;;;2.15;;
65182;SDS011;51771;51.068;-1.780;2024-02-28T11:10:16;10.35;;;2.00;;
65182;SDS011;51771;51.068;-1.780;2024-02-28T11:12:42;6.25;;;2.03;;
65182;SDS011;51771;51.068;-1.780;2024-02-28T11:15:15;9.25;;;2.40;;
65182;SDS011;51771;51.068;-1.780;2024-02-28T11:17:42;6.68;;;2.90;;
65182;SDS011;51771;51.068;-1.780;2024-02-28T11:20:11;8.75;;;2.20;;
65182;SDS011;51771;51.068;-1.780;2024-02-28T11:22:38;7.60;;;1.92;;
65182;SDS011;51771;51.068;-1.780;2024-02-28T11:25:04;6.93;;;2.08;;
65182;SDS011;51771;51.068;-1.780;2024-02-28T11:27:30;10.25;;;1.83;;
65182;SDS011;51771;51.068;-1.780;2024-02-28T11:29:56;7.47;;;1.88;;
65182;SDS011;51771;51.068;-1.780;2024-02-28T11:32:24;10.20;;;2.28;;
65182;SDS011;51771;51.068;-1.780;2024-02-28T11:34:49;10.45;;;2.50;;
65182;SDS011;51771;51.068;-1.780;2024-02-28T11:37:16;6.90;;;1.83;;
65182;SDS011;51771;51.068;-1.780;2024-02-28T11:39:46;6.70;;;2.03;;
65182;SDS011;51771;51.068;-1.780;2024-02-28T11:42:13;6.72;;;2.20;;
65182;SDS011;51771;51.068;-1.780;2024-02-28T11:44:40;9.52;;;2.40;;
65182;SDS011;51771;51.068;-1.780;2024-02-28T11:47:08;5.97;;;1.85;;
65182;SDS011;51771;51.068;-1.780;2024-02-28T11:49:34;8.73;;;2.72;;
65182;SDS011;51771;51.068;-1.780;2024-02-28T11:52:00;10.38;;;2.55;;
65182;SDS011;51771;51.068;-1.780;2024-02-28T11:54:25;15.10;;;2.40;;
65182;SDS011;51771;51.068;-1.780;2024-02-28T11:56:50;9.32;;;2.47;;
65182;SDS011;51771;51.068;-1.780;2024-02-28T11:59:16;8.90;;;2.10;;
65182;SDS011;51771;51.068;-1.780;2024-02-28T12:01:42;11.30;;;2.95;;
65182;SDS011;51771;51.068;-1.780;2024-02-28T12:04:08;10.10;;;2.30;;
65182;SDS011;51771;51.068;-1.780;2024-02-28T12:06:35;8.48;;;2.83;;
65182;SDS011;51771;51.068;-1.780;2024-02-28T12:09:02;8.48;;;2.45;;
65182;SDS011;51771;51.068;-1.780;2024-02-28T12:11:29;10.70;;;2.30;;
65182;SDS011;51771;51.068;-1.780;2024-02-28T12:13:55;8.77;;;2.45;;
65182;SDS011;51771;51.068;-1.780;2024-02-28T12:16:24;8.82;;;2.70;;
65182;SDS011;51771;51.068;-1.780;2024-02-28T12:18:51;10.75;;;3.55;;
65182;SDS011;51771;51.068;-1.780;2024-02-28T12:21:17;7.75;;;1.88;;
65182;SDS011;51771;51.068;-1.780;2024-02-28T12:23:43;9.75;;;2.05;;
65182;SDS011;51771;51.068;-1.780;2024-02-28T12:26:08;6.95;;;1.80;;
65182;SDS011;51771;51.068;-1.780;2024-02-28T12:28:33;11.05;;;1.73;;
65182;SDS011;51771;51.068;-1.780;2024-02-28T12:30:59;10.32;;;1.77;;
65182;SDS011;51771;51.068;-1.780;2024-02-28T12:33:24;9.43;;;1.67;;
65182;SDS011;51771;51.068;-1.780;2024-02-28T12:35:50;8.32;;;1.33;;
65182;SDS011;51771;51.068;-1.780;2024-02-28T12:38:16;10.15;;;1.75;;
65182;SDS011;51771;51.068;-1.780;2024-02-28T12:40:41;10.68;;;2.00;;
65182;SDS011;51771;51.068;-1.780;2024-02-28T12:43:07;5.47;;;1.77;;
65182;SDS011;51771;51.068;-1.780;2024-02-28T12:45:32;7.75;;;1.73;;
65182;SDS011;51771;51.068;-1.780;2024-02-28T12:47:58;12.18;;;2.42;;
65182;SDS011;51771;51.068;-1.780;2024-02-28T12:50:26;11.05;;;2.33;;
65182;SDS011;51771;51.068;-1.780;2024-02-28T12:52:51;7.93;;;1.88;;
65182;SDS011;51771;51.068;-1.780;2024-02-28T12:55:18;13.88;;;2.20;;
65182;SDS011;51771;51.068;-1.780;2024-02-28T12:57:47;10.65;;;2.22;;
65182;SDS011;51771;51.068;-1.780;2024-02-28T13:00:12;10.10;;;1.77;;
65182;SDS011;51771;51.068;-1.780;2024-02-28T13:02:38;8.85;;;1.98;;
65182;SDS011;51771;51.068;-1.780;2024-02-28T13:05:04;7.85;;;1.33;;
65182;SDS011;51771;51.068;-1.780;2024-02-28T13:07:29;9.70;;;1.88;;
65182;SDS011;51771;51.068;-1.780;2024-02-28T13:09:55;8.27;;;1.92;;
65182;SDS011;51771;51.068;-1.780;2024-02-28T13:12:20;6.35;;;1.48;;
65182;SDS011;51771;51.068;-1.780;2024-02-28T13:14:46;10.48;;;1.77;;
65182;SDS011;51771;51.068;-1.780;2024-02-28T13:17:12;10.02;;;2.00;;
65182;SDS011;51771;51.068;-1.780;2024-02-28T13:19:38;7.82;;;1.63;;
65182;SDS011;51771;51.068;-1.780;2024-02-28T13:22:03;10.23;;;2.03;;
65182;SDS011;51771;51.068;-1.780;2024-02-28T13:24:29;8.25;;;2.10;;
65182;SDS011;51771;51.068;-1.780;2024-02-28T13:26:54;6.07;;;1.50;;
65182;SDS011;51771;51.068;-1.780;2024-02-28T13:29:19;5.50;;;1.23;;
65182;SDS011;51771;51.068;-1.780;2024-02-28T13:31:45;6.03;;;1.50;;
65182;SDS011;51771;51.068;-1.780;2024-02-28T13:34:11;4.93;;;1.55;;
65182;SDS011;51771;51.068;-1.780;2024-02-28T13:36:36;7.50;;;1.63;;
65182;SDS011;51771;51.068;-1.780;2024-02-28T13:39:07;9.10;;;1.27;;
65182;SDS011;51771;51.068;-1.780;2024-02-28T13:41:32;11.25;;;1.48;;
65182;SDS011;51771;51.068;-1.780;2024-02-28T13:43:58;5.25;;;1.30;;
65182;SDS011;51771;51.068;-1.780;2024-02-28T13:46:23;6.47;;;1.40;;
65182;SDS011;51771;51.068;-1.780;2024-02-28T13:48:49;6.03;;;1.52;;
65182;SDS011;51771;51.068;-1.780;2024-02-28T13:51:14;5.07;;;1.30;;
65182;SDS011;51771;51.068;-1.780;2024-02-28T13:53:40;6.10;;;1.40;;
65182;SDS011;51771;51.068;-1.780;2024-02-28T13:56:06;9.60;;;2.13;;
65182;SDS011;51771;51.068;-1.780;2024-02-28T13:58:31;5.90;;;1.85;;
65182;SDS011;51771;51.068;-1.780;2024-02-28T14:00:57;6.10;;;1.45;;
65182;SDS011;51771;51.068;-1.780;2024-02-28T14:03:22;6.47;;;1.42;;
65182;SDS011;51771;51.068;-1.780;2024-02-28T14:05:50;5.22;;;1.38;;
65182;SDS011;51771;51.068;-1.780;2024-02-28T14:08:15;8.68;;;1.77;;
65182;SDS011;51771;51.068;-1.780;2024-02-28T14:10:42;5.38;;;1.48;;
65182;SDS011;51771;51.068;-1.780;2024-02-28T14:13:07;6.93;;;1.17;;
65182;SDS011;51771;51.068;-1.780;2024-02-28T14:15:32;5.78;;;1.55;;
65182;SDS011;51771;51.068;-1.780;2024-02-28T14:17:58;4.63;;;1.42;;
65182;SDS011;51771;51.068;-1.780;2024-02-28T14:20:23;5.40;;;1.30;;
65182;SDS011;51771;51.068;-1.780;2024-02-28T14:22:48;5.00;;;1.42;;
65182;SDS011;51771;51.068;-1.780;2024-02-28T14:25:15;5.95;;;1.30;;